sensor_id;sensor_type;location;lat;lon;timestamp;temperature;humidity
68385;DHT22;55336;43.062;25.626;2023-05-07T00:00:39;8.50;99.90
68385;DHT22;55336;43.062;25.626;2023-05-07T00:03:05;8.50;99.90
68385;DHT22;55336;43.062;25.626;2023-05-07T00:05:32;8.50;99.90
68385;DHT22;55336;43.062;25.626;2023-05-07T00:07:57;8.50;99.90
68385;DHT22;55336;43.062;25.626;2023-05-07T00:10:23;8.40;99.90
68385;DHT22;55336;43.062;25.626;2023-05-07T00:12:49;8.40;99.90
68385;DHT22;55336;43.062;25.626;2023-05-07T00:15:15;8.30;99.90
68385;DHT22;55336;43.062;25.626;2023-05-07T00:17:40;8.30;99.90
68385;DHT22;55336;43.062;25.626;2023-05-07T00:20:06;8.30;99.90
68385;DHT22;55336;43.062;25.626;2023-05-07T00:22:32;8.20;99.90
68385;DHT22;55336;43.062;25.626;2023-05-07T00:24:58;8.20;99.90
68385;DHT22;55336;43.062;25.626;2023-05-07T00:27:24;8.10;99.90
68385;DHT22;55336;43.062;25.626;2023-05-07T00:29:50;8.10;99.90
68385;DHT22;55336;43.062;25.626;2023-05-07T00:32:16;8.10;99.90
68385;DHT22;55336;43.062;25.626;2023-05-07T00:34:42;8.10;99.90
68385;DHT22;55336;43.062;25.626;2023-05-07T00:37:08;8.10;99.90
68385;DHT22;55336;43.062;25.626;2023-05-07T00:39:34;8.20;99.90
68385;DHT22;55336;43.062;25.626;2023-05-07T00:42:00;8.20;99.90
68385;DHT22;55336;43.062;25.626;2023-05-07T00:44:26;8.30;99.90
68385;DHT22;55336;43.062;25.626;2023-05-07T00:46:52;8.40;99.90
68385;DHT22;55336;43.062;25.626;2023-05-07T00:49:17;8.50;99.90
68385;DHT22;55336;43.062;25.626;2023-05-07T00:51:43;8.60;99.90
68385;DHT22;55336;43.062;25.626;2023-05-07T00:54:10;8.60;99.90
68385;DHT22;55336;43.062;25.626;2023-05-07T00:56:36;8.70;99.90
68385;DHT22;55336;43.062;25.626;2023-05-07T00:59:02;8.70;99.90
68385;DHT22;55336;43.062;25.626;2023-05-07T01:01:28;8.80;99.90
68385;DHT22;55336;43.062;25.626;2023-05-07T01:03:54;8.80;99.90
68385;DHT22;55336;43.062;25.626;2023-05-07T01:06:20;8.90;99.90
68385;DHT22;55336;43.062;25.626;2023-05-07T01:08:46;9.00;99.90
68385;DHT22;55336;43.062;25.626;2023-05-07T01:11:12;9.00;99.90
68385;DHT22;55336;43.062;25.626;2023-05-07T01:13:38;9.10;99.90
68385;DHT22;55336;43.062;25.626;2023-05-07T01:16:05;9.10;99.90
68385;DHT22;55336;43.062;25.626;2023-05-07T01:18:31;9.20;99.90
68385;DHT22;55336;43.062;25.626;2023-05-07T01:20:58;9.20;99.90
68385;DHT22;55336;43.062;25.626;2023-05-07T01:23:23;9.20;99.90
68385;DHT22;55336;43.062;25.626;2023-05-07T01:25:53;9.30;99.90
68385;DHT22;55336;43.062;25.626;2023-05-07T01:28:19;9.20;99.90
68385;DHT22;55336;43.062;25.626;2023-05-07T01:30:54;9.30;99.90
68385;DHT22;55336;43.062;25.626;2023-05-07T01:33:21;9.30;99.90
68385;DHT22;55336;43.062;25.626;2023-05-07T01:35:48;9.30;99.90
68385;DHT22;55336;43.062;25.626;2023-05-07T01:38:15;9.30;99.90
68385;DHT22;55336;43.062;25.626;2023-05-07T01:40:41;9.30;99.90
68385;DHT22;55336;43.062;25.626;2023-05-07T01:43:07;9.20;99.90
68385;DHT22;55336;43.062;25.626;2023-05-07T01:45:34;9.20;99.90
68385;DHT22;55336;43.062;25.626;2023-05-07T01:47:59;9.20;99.90
68385;DHT22;55336;43.062;25.626;2023-05-07T01:50:26;9.30;99.90
68385;DHT22;55336;43.062;25.626;2023-05-07T01:52:52;9.30;99.90
68385;DHT22;55336;43.062;25.626;2023-05-07T01:55:17;9.30;99.90
68385;DHT22;55336;43.062;25.626;2023-05-07T01:57:43;9.30;99.90
68385;DHT22;55336;43.062;25.626;2023-05-07T02:00:09;9.30;99.90
68385;DHT22;55336;43.062;25.626;2023-05-07T02:02:35;9.30;99.90
68385;DHT22;55336;43.062;25.626;2023-05-07T02:05:01;9.40;99.90
68385;DHT22;55336;43.062;25.626;2023-05-07T02:07:27;9.30;99.90
68385;DHT22;55336;43.062;25.626;2023-05-07T02:09:53;9.40;99.90
68385;DHT22;55336;43.062;25.626;2023-05-07T02:12:20;9.30;99.90
68385;DHT22;55336;43.062;25.626;2023-05-07T02:14:46;9.30;99.90
68385;DHT22;55336;43.062;25.626;2023-05-07T02:17:12;9.40;99.90
68385;DHT22;55336;43.062;25.626;2023-05-07T02:19:38;9.30;99.90
68385;DHT22;55336;43.062;25.626;2023-05-07T02:22:03;9.30;99.90
68385;DHT22;55336;43.062;25.626;2023-05-07T02:24:29;9.40;99.90
68385;DHT22;55336;43.062;25.626;2023-05-07T02:26:55;9.30;99.90
68385;DHT22;55336;43.062;25.626;2023-05-07T02:29:21;9.30;99.90
68385;DHT22;55336;43.062;25.626;2023-05-07T02:31:46;9.40;99.90
68385;DHT22;55336;43.062;25.626;2023-05-07T02:34:16;9.30;99.90
68385;DHT22;55336;43.062;25.626;2023-05-07T02:36:42;9.30;99.90
68385;DHT22;55336;43.062;25.626;2023-05-07T02:39:08;9.30;99.90
68385;DHT22;55336;43.062;25.626;2023-05-07T02:41:34;9.30;99.90
68385;DHT22;55336;43.062;25.626;2023-05-07T02:44:00;9.20;99.90
68385;DHT22;55336;43.062;25.626;2023-05-07T02:46:25;9.20;99.90
68385;DHT22;55336;43.062;25.626;2023-05-07T02:48:51;9.30;99.90
68385;DHT22;55336;43.062;25.626;2023-05-07T02:51:19;9.30;99.90
68385;DHT22;55336;43.062;25.626;2023-05-07T02:53:45;9.20;99.90
68385;DHT22;55336;43.062;25.626;2023-05-07T02:56:11;9.10;99.90
68385;DHT22;55336;43.062;25.626;2023-05-07T02:58:37;9.10;99.90
68385;DHT22;55336;43.062;25.626;2023-05-07T03:01:05;9.00;99.90
68385;DHT22;55336;43.062;25.626;2023-05-07T03:03:30;9.00;99.90
68385;DHT22;55336;43.062;25.626;2023-05-07T03:05:56;8.90;99.90
68385;DHT22;55336;43.062;25.626;2023-05-07T03:08:22;8.90;99.90
68385;DHT22;55336;43.062;25.626;2023-05-07T03:10:48;8.90;99.90
68385;DHT22;55336;43.062;25.626;2023-05-07T03:13:14;8.80;99.90
68385;DHT22;55336;43.062;25.626;2023-05-07T03:15:40;8.80;99.90
68385;DHT22;55336;43.062;25.626;2023-05-07T03:18:05;8.70;99.90
68385;DHT22;55336;43.062;25.626;2023-05-07T03:20:31;8.70;99.90
68385;DHT22;55336;43.062;25.626;2023-05-07T03:22:57;8.70;99.90
68385;DHT22;55336;43.062;25.626;2023-05-07T03:25:23;8.70;99.90
68385;DHT22;55336;43.062;25.626;2023-05-07T03:27:49;8.70;99.90
68385;DHT22;55336;43.062;25.626;2023-05-07T03:30:14;8.70;99.90
68385;DHT22;55336;43.062;25.626;2023-05-07T03:32:40;8.70;99.90
68385;DHT22;55336;43.062;25.626;2023-05-07T03:35:06;8.70;99.90
68385;DHT22;55336;43.062;25.626;2023-05-07T03:37:32;8.70;99.90
68385;DHT22;55336;43.062;25.626;2023-05-07T03:39:58;8.70;99.90
68385;DHT22;55336;43.062;25.626;2023-05-07T03:42:23;8.70;99.90
68385;DHT22;55336;43.062;25.626;2023-05-07T03:44:49;8.70;99.90
68385;DHT22;55336;43.062;25.626;2023-05-07T03:47:15;8.80;99.90
68385;DHT22;55336;43.062;25.626;2023-05-07T03:49:41;8.70;99.90
68385;DHT22;55336;43.062;25.626;2023-05-07T03:52:07;8.80;99.90
68385;DHT22;55336;43.062;25.626;2023-05-07T03:54:32;8.80;99.90
68385;DHT22;55336;43.062;25.626;2023-05-07T03:56:58;8.80;99.90
68385;DHT22;55336;43.062;25.626;2023-05-07T03:59:24;8.80;99.90
68385;DHT22;55336;43.062;25.626;2023-05-07T04:01:49;8.90;99.90
68385;DHT22;55336;43.062;25.626;2023-05-07T04:04:15;9.00;99.90
68385;DHT22;55336;43.062;25.626;2023-05-07T04:06:41;9.00;99.90
68385;DHT22;55336;43.062;25.626;2023-05-07T04:09:07;9.10;99.90
68385;DHT22;55336;43.062;25.626;2023-05-07T04:11:33;9.20;99.90
68385;DHT22;55336;43.062;25.626;2023-05-07T04:13:58;9.30;99.90
68385;DHT22;55336;43.062;25.626;2023-05-07T04:16:24;8.70;99.90
68385;DHT22;55336;43.062;25.626;2023-05-07T04:18:51;9.50;99.90
68385;DHT22;55336;43.062;25.626;2023-05-07T04:21:17;9.40;99.90
68385;DHT22;55336;43.062;25.626;2023-05-07T04:23:48;9.50;99.90
68385;DHT22;55336;43.062;25.626;2023-05-07T04:26:14;9.70;99.90
68385;DHT22;55336;43.062;25.626;2023-05-07T04:28:40;9.80;99.90
68385;DHT22;55336;43.062;25.626;2023-05-07T04:31:06;9.80;99.90
68385;DHT22;55336;43.062;25.626;2023-05-07T04:33:32;9.90;99.90
68385;DHT22;55336;43.062;25.626;2023-05-07T04:35:58;10.00;99.90
68385;DHT22;55336;43.062;25.626;2023-05-07T04:38:31;10.10;99.90
68385;DHT22;55336;43.062;25.626;2023-05-07T04:40:57;10.20;99.90
68385;DHT22;55336;43.062;25.626;2023-05-07T04:43:23;10.30;99.90
68385;DHT22;55336;43.062;25.626;2023-05-07T04:45:51;10.40;99.90
68385;DHT22;55336;43.062;25.626;2023-05-07T04:48:17;10.40;99.90
68385;DHT22;55336;43.062;25.626;2023-05-07T04:50:51;10.70;99.90
68385;DHT22;55336;43.062;25.626;2023-05-07T04:53:17;10.80;99.90
68385;DHT22;55336;43.062;25.626;2023-05-07T04:55:43;11.00;99.90
68385;DHT22;55336;43.062;25.626;2023-05-07T04:58:10;11.20;99.90
68385;DHT22;55336;43.062;25.626;2023-05-07T05:00:36;11.30;99.90
68385;DHT22;55336;43.062;25.626;2023-05-07T05:03:04;11.50;99.90
68385;DHT22;55336;43.062;25.626;2023-05-07T05:05:30;11.80;99.90
68385;DHT22;55336;43.062;25.626;2023-05-07T05:07:56;11.80;99.90
68385;DHT22;55336;43.062;25.626;2023-05-07T05:10:21;11.50;99.90
68385;DHT22;55336;43.062;25.626;2023-05-07T05:12:47;11.40;99.90
68385;DHT22;55336;43.062;25.626;2023-05-07T05:15:13;11.00;99.90
68385;DHT22;55336;43.062;25.626;2023-05-07T05:17:40;11.30;99.90
68385;DHT22;55336;43.062;25.626;2023-05-07T05:20:07;11.60;99.90
68385;DHT22;55336;43.062;25.626;2023-05-07T05:22:34;11.80;99.90
68385;DHT22;55336;43.062;25.626;2023-05-07T05:25:00;12.10;99.90
68385;DHT22;55336;43.062;25.626;2023-05-07T05:27:26;12.00;99.90
68385;DHT22;55336;43.062;25.626;2023-05-07T05:29:52;12.40;99.90
68385;DHT22;55336;43.062;25.626;2023-05-07T05:32:18;12.20;99.90
68385;DHT22;55336;43.062;25.626;2023-05-07T05:34:43;12.30;99.90
68385;DHT22;55336;43.062;25.626;2023-05-07T05:37:09;13.10;99.90
68385;DHT22;55336;43.062;25.626;2023-05-07T05:39:35;13.80;99.90
68385;DHT22;55336;43.062;25.626;2023-05-07T05:42:01;14.40;99.90
68385;DHT22;55336;43.062;25.626;2023-05-07T05:44:27;14.80;99.90
68385;DHT22;55336;43.062;25.626;2023-05-07T05:46:53;15.40;99.90
68385;DHT22;55336;43.062;25.626;2023-05-07T05:49:20;15.70;99.90
68385;DHT22;55336;43.062;25.626;2023-05-07T05:51:47;16.00;99.90
68385;DHT22;55336;43.062;25.626;2023-05-07T05:54:13;16.40;99.90
68385;DHT22;55336;43.062;25.626;2023-05-07T05:56:38;16.50;99.90
68385;DHT22;55336;43.062;25.626;2023-05-07T05:59:04;17.00;99.90
68385;DHT22;55336;43.062;25.626;2023-05-07T06:01:30;16.70;99.90
68385;DHT22;55336;43.062;25.626;2023-05-07T06:03:56;16.30;99.90
68385;DHT22;55336;43.062;25.626;2023-05-07T06:06:22;17.10;99.90
68385;DHT22;55336;43.062;25.626;2023-05-07T06:08:47;17.40;99.90
68385;DHT22;55336;43.062;25.626;2023-05-07T06:11:13;17.70;99.90
68385;DHT22;55336;43.062;25.626;2023-05-07T06:13:39;18.30;99.90
68385;DHT22;55336;43.062;25.626;2023-05-07T06:16:05;18.30;99.90
68385;DHT22;55336;43.062;25.626;2023-05-07T06:18:31;19.00;99.90
68385;DHT22;55336;43.062;25.626;2023-05-07T06:20:57;19.20;99.90
68385;DHT22;55336;43.062;25.626;2023-05-07T06:23:23;19.40;99.90
68385;DHT22;55336;43.062;25.626;2023-05-07T06:25:49;19.80;99.60
68385;DHT22;55336;43.062;25.626;2023-05-07T06:28:15;19.80;99.90
68385;DHT22;55336;43.062;25.626;2023-05-07T06:30:41;20.20;97.00
68385;DHT22;55336;43.062;25.626;2023-05-07T06:33:07;20.30;97.50
68385;DHT22;55336;43.062;25.626;2023-05-07T06:35:32;20.60;92.60
68385;DHT22;55336;43.062;25.626;2023-05-07T06:37:59;20.60;85.20
68385;DHT22;55336;43.062;25.626;2023-05-07T06:40:25;20.60;82.90
68385;DHT22;55336;43.062;25.626;2023-05-07T06:42:51;20.80;80.60
68385;DHT22;55336;43.062;25.626;2023-05-07T06:45:16;20.70;79.80
68385;DHT22;55336;43.062;25.626;2023-05-07T06:47:42;21.20;74.30
68385;DHT22;55336;43.062;25.626;2023-05-07T06:50:09;21.50;69.50
68385;DHT22;55336;43.062;25.626;2023-05-07T06:52:35;21.70;64.50
68385;DHT22;55336;43.062;25.626;2023-05-07T06:55:01;21.40;67.40
68385;DHT22;55336;43.062;25.626;2023-05-07T06:57:27;22.20;61.40
68385;DHT22;55336;43.062;25.626;2023-05-07T06:59:53;22.50;63.00
68385;DHT22;55336;43.062;25.626;2023-05-07T07:02:21;22.50;59.70
68385;DHT22;55336;43.062;25.626;2023-05-07T07:04:47;22.60;58.60
68385;DHT22;55336;43.062;25.626;2023-05-07T07:07:13;22.20;62.40
68385;DHT22;55336;43.062;25.626;2023-05-07T07:09:39;22.40;60.00
68385;DHT22;55336;43.062;25.626;2023-05-07T07:12:05;22.80;60.20
68385;DHT22;55336;43.062;25.626;2023-05-07T07:14:31;22.80;60.00
68385;DHT22;55336;43.062;25.626;2023-05-07T07:16:57;21.40;57.90
68385;DHT22;55336;43.062;25.626;2023-05-07T07:19:23;22.70;56.10
68385;DHT22;55336;43.062;25.626;2023-05-07T07:21:49;23.10;54.30
68385;DHT22;55336;43.062;25.626;2023-05-07T07:24:15;23.70;51.80
68385;DHT22;55336;43.062;25.626;2023-05-07T07:26:44;23.70;50.90
68385;DHT22;55336;43.062;25.626;2023-05-07T07:29:10;23.80;48.00
68385;DHT22;55336;43.062;25.626;2023-05-07T07:31:36;24.00;47.00
68385;DHT22;55336;43.062;25.626;2023-05-07T07:34:02;23.20;51.60
68385;DHT22;55336;43.062;25.626;2023-05-07T07:36:27;22.50;52.40
68385;DHT22;55336;43.062;25.626;2023-05-07T07:38:53;23.30;51.40
68385;DHT22;55336;43.062;25.626;2023-05-07T07:41:19;24.10;46.50
68385;DHT22;55336;43.062;25.626;2023-05-07T07:43:45;24.70;45.30
68385;DHT22;55336;43.062;25.626;2023-05-07T07:46:12;24.80;44.30
68385;DHT22;55336;43.062;25.626;2023-05-07T07:48:37;25.00;45.30
68385;DHT22;55336;43.062;25.626;2023-05-07T07:51:04;25.40;43.60
68385;DHT22;55336;43.062;25.626;2023-05-07T07:53:30;25.40;43.10
68385;DHT22;55336;43.062;25.626;2023-05-07T07:55:55;25.80;42.80
68385;DHT22;55336;43.062;25.626;2023-05-07T07:58:21;26.20;42.20
68385;DHT22;55336;43.062;25.626;2023-05-07T08:00:47;25.20;42.60
68385;DHT22;55336;43.062;25.626;2023-05-07T08:03:14;25.40;43.20
68385;DHT22;55336;43.062;25.626;2023-05-07T08:05:42;25.70;41.10
68385;DHT22;55336;43.062;25.626;2023-05-07T08:08:08;25.60;42.00
68385;DHT22;55336;43.062;25.626;2023-05-07T08:10:34;25.10;42.80
68385;DHT22;55336;43.062;25.626;2023-05-07T08:13:00;25.40;40.20
68385;DHT22;55336;43.062;25.626;2023-05-07T08:15:26;25.80;40.90
68385;DHT22;55336;43.062;25.626;2023-05-07T08:17:51;25.90;37.90
68385;DHT22;55336;43.062;25.626;2023-05-07T08:20:17;26.20;33.80
68385;DHT22;55336;43.062;25.626;2023-05-07T08:22:43;26.40;31.80
68385;DHT22;55336;43.062;25.626;2023-05-07T08:25:09;26.50;32.10
68385;DHT22;55336;43.062;25.626;2023-05-07T08:27:35;26.50;30.10
68385;DHT22;55336;43.062;25.626;2023-05-07T08:30:01;26.70;28.50
68385;DHT22;55336;43.062;25.626;2023-05-07T08:32:27;27.00;31.10
68385;DHT22;55336;43.062;25.626;2023-05-07T08:34:53;27.00;29.30
68385;DHT22;55336;43.062;25.626;2023-05-07T08:37:18;27.10;30.40
68385;DHT22;55336;43.062;25.626;2023-05-07T08:39:44;27.50;29.90
68385;DHT22;55336;43.062;25.626;2023-05-07T08:42:11;27.10;29.50
68385;DHT22;55336;43.062;25.626;2023-05-07T08:44:36;27.40;31.40
68385;DHT22;55336;43.062;25.626;2023-05-07T08:47:03;27.10;29.30
68385;DHT22;55336;43.062;25.626;2023-05-07T08:49:31;26.90;28.50
68385;DHT22;55336;43.062;25.626;2023-05-07T08:51:58;27.20;30.20
68385;DHT22;55336;43.062;25.626;2023-05-07T08:54:24;27.50;30.60
68385;DHT22;55336;43.062;25.626;2023-05-07T08:56:50;27.70;28.00
68385;DHT22;55336;43.062;25.626;2023-05-07T08:59:16;27.70;27.10
68385;DHT22;55336;43.062;25.626;2023-05-07T09:01:42;27.60;25.50
68385;DHT22;55336;43.062;25.626;2023-05-07T09:04:08;27.60;26.60
68385;DHT22;55336;43.062;25.626;2023-05-07T09:06:34;27.90;26.40
68385;DHT22;55336;43.062;25.626;2023-05-07T09:09:00;27.90;27.70
68385;DHT22;55336;43.062;25.626;2023-05-07T09:11:26;27.90;26.90
68385;DHT22;55336;43.062;25.626;2023-05-07T09:13:53;27.70;27.20
68385;DHT22;55336;43.062;25.626;2023-05-07T09:16:20;27.90;27.20
68385;DHT22;55336;43.062;25.626;2023-05-07T09:18:46;27.90;27.40
68385;DHT22;55336;43.062;25.626;2023-05-07T09:21:16;28.00;27.90
68385;DHT22;55336;43.062;25.626;2023-05-07T09:23:42;28.20;27.40
68385;DHT22;55336;43.062;25.626;2023-05-07T09:26:08;28.20;27.30
68385;DHT22;55336;43.062;25.626;2023-05-07T09:28:40;27.70;28.10
68385;DHT22;55336;43.062;25.626;2023-05-07T09:31:10;28.00;28.50
68385;DHT22;55336;43.062;25.626;2023-05-07T09:33:36;28.20;26.10
68385;DHT22;55336;43.062;25.626;2023-05-07T09:36:02;28.40;26.30
68385;DHT22;55336;43.062;25.626;2023-05-07T09:38:28;28.80;27.40
68385;DHT22;55336;43.062;25.626;2023-05-07T09:41:11;28.80;27.10
68385;DHT22;55336;43.062;25.626;2023-05-07T09:43:38;28.50;27.00
68385;DHT22;55336;43.062;25.626;2023-05-07T09:46:07;28.50;28.80
68385;DHT22;55336;43.062;25.626;2023-05-07T09:48:37;28.40;26.50
68385;DHT22;55336;43.062;25.626;2023-05-07T09:51:04;28.30;26.90
68385;DHT22;55336;43.062;25.626;2023-05-07T09:53:31;27.70;27.80
68385;DHT22;55336;43.062;25.626;2023-05-07T09:55:58;27.70;29.30
68385;DHT22;55336;43.062;25.626;2023-05-07T09:58:27;27.80;28.40
68385;DHT22;55336;43.062;25.626;2023-05-07T10:00:53;27.90;29.20
68385;DHT22;55336;43.062;25.626;2023-05-07T10:03:19;26.30;30.80
68385;DHT22;55336;43.062;25.626;2023-05-07T10:05:46;26.80;30.90
68385;DHT22;55336;43.062;25.626;2023-05-07T10:08:13;27.70;30.10
68385;DHT22;55336;43.062;25.626;2023-05-07T10:10:39;28.20;30.40
68385;DHT22;55336;43.062;25.626;2023-05-07T10:13:06;28.10;30.20
68385;DHT22;55336;43.062;25.626;2023-05-07T10:15:36;28.30;29.10
68385;DHT22;55336;43.062;25.626;2023-05-07T10:18:03;28.50;28.10
68385;DHT22;55336;43.062;25.626;2023-05-07T10:20:28;27.90;29.80
68385;DHT22;55336;43.062;25.626;2023-05-07T10:22:55;28.00;31.30
68385;DHT22;55336;43.062;25.626;2023-05-07T10:25:23;28.10;30.20
68385;DHT22;55336;43.062;25.626;2023-05-07T10:27:50;28.30;31.20
68385;DHT22;55336;43.062;25.626;2023-05-07T10:30:38;28.30;29.10
68385;DHT22;55336;43.062;25.626;2023-05-07T10:33:06;27.90;30.10
68385;DHT22;55336;43.062;25.626;2023-05-07T10:35:36;27.70;31.00
68385;DHT22;55336;43.062;25.626;2023-05-07T10:38:03;28.20;30.60
68385;DHT22;55336;43.062;25.626;2023-05-07T10:40:30;28.30;30.10
68385;DHT22;55336;43.062;25.626;2023-05-07T10:42:56;28.20;31.80
68385;DHT22;55336;43.062;25.626;2023-05-07T10:45:22;28.30;30.90
68385;DHT22;55336;43.062;25.626;2023-05-07T10:50:37;27.50;32.30
68385;DHT22;55336;43.062;25.626;2023-05-07T10:55:41;28.30;32.40
68385;DHT22;55336;43.062;25.626;2023-05-07T11:00:46;29.20;28.10
68385;DHT22;55336;43.062;25.626;2023-05-07T11:03:12;29.60;29.50
68385;DHT22;55336;43.062;25.626;2023-05-07T11:05:40;29.70;28.30
68385;DHT22;55336;43.062;25.626;2023-05-07T11:08:06;29.30;27.30
68385;DHT22;55336;43.062;25.626;2023-05-07T11:10:51;29.30;28.60
68385;DHT22;55336;43.062;25.626;2023-05-07T11:13:17;29.70;26.80
68385;DHT22;55336;43.062;25.626;2023-05-07T11:15:47;29.60;26.00
68385;DHT22;55336;43.062;25.626;2023-05-07T11:18:13;29.70;27.40
68385;DHT22;55336;43.062;25.626;2023-05-07T11:20:46;29.50;30.00
68385;DHT22;55336;43.062;25.626;2023-05-07T11:28:42;29.80;27.30
68385;DHT22;55336;43.062;25.626;2023-05-07T11:31:08;30.20;26.70
68385;DHT22;55336;43.062;25.626;2023-05-07T11:33:34;30.30;25.70
68385;DHT22;55336;43.062;25.626;2023-05-07T11:36:01;29.30;26.90
68385;DHT22;55336;43.062;25.626;2023-05-07T11:38:28;29.60;27.60
68385;DHT22;55336;43.062;25.626;2023-05-07T11:40:55;29.90;27.10
68385;DHT22;55336;43.062;25.626;2023-05-07T11:43:21;29.40;28.90
68385;DHT22;55336;43.062;25.626;2023-05-07T11:45:47;29.50;28.10
68385;DHT22;55336;43.062;25.626;2023-05-07T11:48:13;29.10;28.90
68385;DHT22;55336;43.062;25.626;2023-05-07T11:50:52;29.40;27.60
68385;DHT22;55336;43.062;25.626;2023-05-07T11:53:18;29.80;27.30
68385;DHT22;55336;43.062;25.626;2023-05-07T11:55:45;29.60;27.80
68385;DHT22;55336;43.062;25.626;2023-05-07T11:58:12;29.70;26.80
68385;DHT22;55336;43.062;25.626;2023-05-07T12:00:38;30.20;28.90
68385;DHT22;55336;43.062;25.626;2023-05-07T12:03:04;28.50;30.10
68385;DHT22;55336;43.062;25.626;2023-05-07T12:05:30;29.00;27.90
68385;DHT22;55336;43.062;25.626;2023-05-07T12:07:56;27.10;32.80
68385;DHT22;55336;43.062;25.626;2023-05-07T12:10:22;28.20;31.70
68385;DHT22;55336;43.062;25.626;2023-05-07T12:12:50;28.50;31.50
68385;DHT22;55336;43.062;25.626;2023-05-07T12:15:16;28.20;31.20
68385;DHT22;55336;43.062;25.626;2023-05-07T12:17:42;29.30;29.30
68385;DHT22;55336;43.062;25.626;2023-05-07T12:20:08;30.10;29.10
68385;DHT22;55336;43.062;25.626;2023-05-07T12:22:35;30.30;26.20
68385;DHT22;55336;43.062;25.626;2023-05-07T12:25:00;30.20;26.40
68385;DHT22;55336;43.062;25.626;2023-05-07T12:27:27;30.50;25.70
68385;DHT22;55336;43.062;25.626;2023-05-07T12:29:53;30.70;24.60
68385;DHT22;55336;43.062;25.626;2023-05-07T12:32:20;30.40;24.90
68385;DHT22;55336;43.062;25.626;2023-05-07T12:34:46;28.80;27.70
68385;DHT22;55336;43.062;25.626;2023-05-07T12:37:12;28.40;30.20
68385;DHT22;55336;43.062;25.626;2023-05-07T12:39:43;29.00;27.80
68385;DHT22;55336;43.062;25.626;2023-05-07T12:42:09;29.90;28.80
68385;DHT22;55336;43.062;25.626;2023-05-07T12:44:40;29.40;32.70
68385;DHT22;55336;43.062;25.626;2023-05-07T12:47:06;30.10;26.30
68385;DHT22;55336;43.062;25.626;2023-05-07T12:49:31;30.70;24.70
68385;DHT22;55336;43.062;25.626;2023-05-07T12:51:59;30.60;24.80
68385;DHT22;55336;43.062;25.626;2023-05-07T12:54:29;30.50;24.50
68385;DHT22;55336;43.062;25.626;2023-05-07T12:57:02;30.60;25.40
68385;DHT22;55336;43.062;25.626;2023-05-07T12:59:32;30.80;26.50
68385;DHT22;55336;43.062;25.626;2023-05-07T13:01:57;30.40;25.10
68385;DHT22;55336;43.062;25.626;2023-05-07T13:04:26;29.40;28.10
68385;DHT22;55336;43.062;25.626;2023-05-07T13:06:52;30.10;27.70
68385;DHT22;55336;43.062;25.626;2023-05-07T13:09:18;30.40;25.20
68385;DHT22;55336;43.062;25.626;2023-05-07T13:11:44;30.70;25.70
68385;DHT22;55336;43.062;25.626;2023-05-07T13:14:09;29.20;26.90
68385;DHT22;55336;43.062;25.626;2023-05-07T13:16:35;29.50;27.00
68385;DHT22;55336;43.062;25.626;2023-05-07T13:19:01;30.10;25.70
68385;DHT22;55336;43.062;25.626;2023-05-07T13:21:27;30.60;24.10
68385;DHT22;55336;43.062;25.626;2023-05-07T13:23:52;30.30;26.90
68385;DHT22;55336;43.062;25.626;2023-05-07T13:26:18;30.80;25.40
68385;DHT22;55336;43.062;25.626;2023-05-07T13:28:45;30.90;25.10
68385;DHT22;55336;43.062;25.626;2023-05-07T13:31:11;30.50;24.80
68385;DHT22;55336;43.062;25.626;2023-05-07T13:33:37;30.10;25.70
68385;DHT22;55336;43.062;25.626;2023-05-07T13:36:03;30.50;28.10
68385;DHT22;55336;43.062;25.626;2023-05-07T13:38:31;30.80;24.20
68385;DHT22;55336;43.062;25.626;2023-05-07T13:40:56;30.90;22.80
68385;DHT22;55336;43.062;25.626;2023-05-07T13:43:22;30.60;24.30
68385;DHT22;55336;43.062;25.626;2023-05-07T13:45:48;30.60;24.10
68385;DHT22;55336;43.062;25.626;2023-05-07T13:48:14;30.50;23.00
68385;DHT22;55336;43.062;25.626;2023-05-07T13:50:40;30.60;25.30
68385;DHT22;55336;43.062;25.626;2023-05-07T13:53:08;31.10;24.20
68385;DHT22;55336;43.062;25.626;2023-05-07T13:55:36;31.20;22.70
68385;DHT22;55336;43.062;25.626;2023-05-07T13:58:02;30.10;25.10
68385;DHT22;55336;43.062;25.626;2023-05-07T14:00:28;30.70;23.70
68385;DHT22;55336;43.062;25.626;2023-05-07T14:02:55;31.30;23.60
68385;DHT22;55336;43.062;25.626;2023-05-07T14:05:21;31.00;24.10
68385;DHT22;55336;43.062;25.626;2023-05-07T14:07:54;31.40;23.30
68385;DHT22;55336;43.062;25.626;2023-05-07T14:10:19;31.00;24.50
68385;DHT22;55336;43.062;25.626;2023-05-07T14:12:46;31.30;22.90
68385;DHT22;55336;43.062;25.626;2023-05-07T14:15:12;31.50;21.90
68385;DHT22;55336;43.062;25.626;2023-05-07T14:17:38;31.40;24.20
68385;DHT22;55336;43.062;25.626;2023-05-07T14:20:04;30.80;22.20
68385;DHT22;55336;43.062;25.626;2023-05-07T14:22:31;30.80;23.20
68385;DHT22;55336;43.062;25.626;2023-05-07T14:24:57;31.30;23.50
68385;DHT22;55336;43.062;25.626;2023-05-07T14:27:23;31.70;21.70
68385;DHT22;55336;43.062;25.626;2023-05-07T14:29:48;31.00;22.00
68385;DHT22;55336;43.062;25.626;2023-05-07T14:32:19;31.30;23.00
68385;DHT22;55336;43.062;25.626;2023-05-07T14:34:45;31.50;21.90
68385;DHT22;55336;43.062;25.626;2023-05-07T14:37:11;31.70;22.90
68385;DHT22;55336;43.062;25.626;2023-05-07T14:39:37;31.70;22.00
68385;DHT22;55336;43.062;25.626;2023-05-07T14:42:03;31.30;21.60
68385;DHT22;55336;43.062;25.626;2023-05-07T14:44:28;31.00;22.40
68385;DHT22;55336;43.062;25.626;2023-05-07T14:46:54;30.50;23.00
68385;DHT22;55336;43.062;25.626;2023-05-07T14:49:20;30.70;22.50
68385;DHT22;55336;43.062;25.626;2023-05-07T14:51:46;30.70;22.90
68385;DHT22;55336;43.062;25.626;2023-05-07T14:54:12;29.80;24.10
68385;DHT22;55336;43.062;25.626;2023-05-07T14:56:38;30.20;24.60
68385;DHT22;55336;43.062;25.626;2023-05-07T14:59:04;30.60;23.50
68385;DHT22;55336;43.062;25.626;2023-05-07T15:01:30;30.60;23.40
68385;DHT22;55336;43.062;25.626;2023-05-07T15:03:56;30.30;23.20
68385;DHT22;55336;43.062;25.626;2023-05-07T15:06:21;30.20;26.10
68385;DHT22;55336;43.062;25.626;2023-05-07T15:08:47;30.30;25.50
68385;DHT22;55336;43.062;25.626;2023-05-07T15:11:14;30.20;25.80
68385;DHT22;55336;43.062;25.626;2023-05-07T15:13:41;30.30;24.70
68385;DHT22;55336;43.062;25.626;2023-05-07T15:16:07;30.30;24.20
68385;DHT22;55336;43.062;25.626;2023-05-07T15:18:33;30.30;24.10
68385;DHT22;55336;43.062;25.626;2023-05-07T15:21:01;30.20;24.30
68385;DHT22;55336;43.062;25.626;2023-05-07T15:23:27;30.50;23.80
68385;DHT22;55336;43.062;25.626;2023-05-07T15:25:52;30.20;24.00
68385;DHT22;55336;43.062;25.626;2023-05-07T15:28:18;30.30;24.30